Time,TemperatureF,DewpointF,PressureIn,WindDirection,WindDirectionDegrees,WindSpeedMPH,WindSpeedGustMPH,Humidity,HourlyPrecipIn,Conditions,Clouds,dailyrainin,SoftwareType,DateUTC
2013-05-19 00:00:00,55.4,38.1,29.66,North,352,0.0,2.0,52,0.00,,,0.00,LWC V2.11 B50,2013-05-19 06:00:00,
2013-05-19 00:05:00,55.4,38.6,29.66,North,352,0.0,0.0,53,0.00,,,0.00,LWC V2.11 B50,2013-05-19 06:05:00,
2013-05-19 00:10:00,55.3,38.5,29.66,NNW,337,3.0,3.0,53,0.00,,,0.00,LWC V2.11 B50,2013-05-19 06:10:00,
2013-05-19 00:15:00,55.1,39.7,29.66,NW,323,0.0,2.0,56,0.00,,,0.00,LWC V2.11 B50,2013-05-19 06:15:00,
2013-05-19 00:20:00,55.0,39.6,29.66,NW,323,2.0,2.0,56,0.00,,,0.00,LWC V2.11 B50,2013-05-19 06:20:00,
2013-05-19 00:25:00,54.5,39.1,29.66,WNW,287,2.0,4.0,56,0.00,,,0.00,LWC V2.11 B50,2013-05-19 06:25:00,
2013-05-19 00:30:00,54.2,39.3,29.66,WNW,287,0.0,0.0,57,0.00,,,0.00,LWC V2.11 B50,2013-05-19 06:30:00,
2013-05-19 00:35:00,53.8,39.4,29.66,WNW,287,0.0,0.0,58,0.00,,,0.00,LWC V2.11 B50,2013-05-19 06:35:00,
2013-05-19 00:40:00,53.2,38.8,29.66,WNW,292,2.0,5.0,58,0.00,,,0.00,LWC V2.11 B50,2013-05-19 06:40:00,
2013-05-19 00:45:00,52.8,38.0,29.66,WNW,302,4.0,5.0,57,0.00,,,0.00,LWC V2.11 B50,2013-05-19 06:45:00,
2013-05-19 00:50:00,52.5,37.3,29.66,NW,313,1.0,3.0,56,0.00,,,0.00,LWC V2.11 B50,2013-05-19 06:50:00,
2013-05-19 00:55:00,52.5,37.7,29.66,WNW,285,1.0,2.0,57,0.00,,,0.00,LWC V2.11 B50,2013-05-19 06:55:00,
2013-05-19 01:00:00,52.3,35.7,29.66,WNW,282,3.0,4.0,53,0.00,,,0.00,LWC V2.11 B50,2013-05-19 07:00:00,
2013-05-19 01:05:00,52.3,34.7,29.66,WNW,284,2.0,2.0,51,0.00,,,0.00,LWC V2.11 B50,2013-05-19 07:05:00,
2013-05-19 01:10:00,52.5,34.9,29.66,WSW,258,4.0,7.0,51,0.00,,,0.00,LWC V2.11 B50,2013-05-19 07:10:00,
2013-05-19 01:15:00,52.6,36.9,29.64,SW,217,7.0,10.0,55,0.00,,,0.00,LWC V2.11 B50,2013-05-19 07:15:00,
2013-05-19 01:20:00,52.3,38.4,29.64,SW,226,3.0,5.0,59,0.00,,,0.00,LWC V2.11 B50,2013-05-19 07:20:00,
2013-05-19 01:25:00,52.2,37.9,29.64,SW,226,4.0,4.0,58,0.00,,,0.00,LWC V2.11 B50,2013-05-19 07:25:00,
2013-05-19 01:30:00,51.9,38.9,29.65,SW,223,8.0,8.0,61,0.00,,,0.00,LWC V2.11 B50,2013-05-19 07:30:00,
2013-05-19 01:35:00,51.7,37.8,29.65,SW,215,1.0,3.0,59,0.00,,,0.00,LWC V2.11 B50,2013-05-19 07:35:00,
2013-05-19 01:40:00,51.6,36.0,29.65,SW,215,0.0,0.0,55,0.00,,,0.00,LWC V2.11 B50,2013-05-19 07:40:00,
2013-05-19 01:45:00,51.6,35.5,29.65,SW,215,0.0,0.0,54,0.00,,,0.00,LWC V2.11 B50,2013-05-19 07:45:00,
2013-05-19 01:50:00,51.6,34.1,29.65,South,189,2.0,3.0,51,0.00,,,0.00,LWC V2.11 B50,2013-05-19 07:50:00,
2013-05-19 01:55:00,51.7,35.1,29.65,SSW,205,2.0,3.0,53,0.00,,,0.00,LWC V2.11 B50,2013-05-19 07:55:00,
2013-05-19 02:00:00,51.7,36.1,29.65,SSW,205,0.0,5.0,55,0.00,,,0.00,LWC V2.11 B50,2013-05-19 08:00:00,
2013-05-19 02:05:00,51.7,35.6,29.65,SSW,205,1.0,3.0,54,0.00,,,0.00,LWC V2.11 B50,2013-05-19 08:05:00,
2013-05-19 02:10:00,51.6,35.5,29.65,SSW,205,2.0,2.0,54,0.00,,,0.00,LWC V2.11 B50,2013-05-19 08:10:00,
2013-05-19 02:15:00,51.4,34.8,29.65,SSW,205,0.0,0.0,53,0.00,,,0.00,LWC V2.11 B50,2013-05-19 08:15:00,
2013-05-19 02:20:00,51.3,33.8,29.65,SSW,213,5.0,5.0,51,0.00,,,0.00,LWC V2.11 B50,2013-05-19 08:20:00,
2013-05-19 02:25:00,51.1,33.1,29.65,West,264,2.0,3.0,50,0.00,,,0.00,LWC V2.11 B50,2013-05-19 08:25:00,
2013-05-19 02:30:00,51.0,33.0,29.66,West,265,0.0,0.0,50,0.00,,,0.00,LWC V2.11 B50,2013-05-19 08:30:00,
2013-05-19 02:35:00,51.0,33.5,29.66,West,265,0.0,0.0,51,0.00,,,0.00,LWC V2.11 B50,2013-05-19 08:35:00,
2013-05-19 02:40:00,51.1,31.6,29.66,West,265,0.0,1.0,47,0.00,,,0.00,LWC V2.11 B50,2013-05-19 08:40:00,
2013-05-19 02:45:00,51.3,32.8,29.66,West,265,1.0,2.0,49,0.00,,,0.00,LWC V2.11 B50,2013-05-19 08:45:00,
2013-05-19 02:50:00,51.4,31.3,29.66,West,264,2.0,3.0,46,0.00,,,0.00,LWC V2.11 B50,2013-05-19 08:50:00,
2013-05-19 02:55:00,51.7,32.1,29.66,West,264,0.0,1.0,47,0.00,,,0.00,LWC V2.11 B50,2013-05-19 08:55:00,
2013-05-19 03:00:00,51.6,34.1,29.64,West,264,3.0,3.0,51,0.00,,,0.00,LWC V2.11 B50,2013-05-19 09:00:00,
2013-05-19 03:05:00,51.4,34.4,29.64,WSW,239,7.0,8.0,52,0.00,,,0.00,LWC V2.11 B50,2013-05-19 09:05:00,
2013-05-19 03:10:00,51.1,33.6,29.64,WSW,256,2.0,5.0,51,0.00,,,0.00,LWC V2.11 B50,2013-05-19 09:10:00,
2013-05-19 03:15:00,51.1,32.1,29.63,WSW,256,0.0,0.0,48,0.00,,,0.00,LWC V2.11 B50,2013-05-19 09:15:00,
2013-05-19 03:20:00,51.1,35.0,29.63,WSW,256,0.0,0.0,54,0.00,,,0.00,LWC V2.11 B50,2013-05-19 09:20:00,
2013-05-19 03:25:00,51.0,33.0,29.63,WSW,256,0.0,0.0,50,0.00,,,0.00,LWC V2.11 B50,2013-05-19 09:25:00,
2013-05-19 03:30:00,51.0,34.0,29.63,WSW,256,0.0,0.0,52,0.00,,,0.00,LWC V2.11 B50,2013-05-19 09:30:00,
2013-05-19 03:35:00,50.7,34.7,29.63,WSW,256,0.0,0.0,54,0.00,,,0.00,LWC V2.11 B50,2013-05-19 09:35:00,
2013-05-19 03:40:00,50.2,34.2,29.63,WSW,256,2.0,2.0,54,0.00,,,0.00,LWC V2.11 B50,2013-05-19 09:40:00,
2013-05-19 03:45:00,49.6,34.6,29.63,WSW,256,2.0,2.0,56,0.00,,,0.00,LWC V2.11 B50,2013-05-19 09:45:00,
2013-05-19 03:50:00,49.2,33.7,29.63,WSW,256,0.0,0.0,55,0.00,,,0.00,LWC V2.11 B50,2013-05-19 09:50:00,
2013-05-19 03:55:00,48.8,34.2,29.63,SW,236,4.0,4.0,57,0.00,,,0.00,LWC V2.11 B50,2013-05-19 09:55:00,
2013-05-19 04:00:00,48.5,33.1,29.64,SW,223,0.0,2.0,55,0.00,,,0.00,LWC V2.11 B50,2013-05-19 10:00:00,
2013-05-19 04:05:00,48.0,32.2,29.64,SW,223,0.0,1.0,54,0.00,,,0.00,LWC V2.11 B50,2013-05-19 10:05:00,
2013-05-19 04:10:00,48.0,32.2,29.64,SW,223,1.0,1.0,54,0.00,,,0.00,LWC V2.11 B50,2013-05-19 10:10:00,
2013-05-19 04:15:00,47.9,33.8,29.67,NW,322,3.0,5.0,58,0.00,,,0.00,LWC V2.11 B50,2013-05-19 10:15:00,
2013-05-19 04:20:00,47.7,34.1,29.67,WSW,246,3.0,3.0,59,0.00,,,0.00,LWC V2.11 B50,2013-05-19 10:20:00,
2013-05-19 04:25:00,47.6,33.6,29.67,West,270,5.0,6.0,58,0.00,,,0.00,LWC V2.11 B50,2013-05-19 10:25:00,
2013-05-19 04:30:00,47.6,31.8,29.67,WSW,251,3.0,6.0,54,0.00,,,0.00,LWC V2.11 B50,2013-05-19 10:30:00,
2013-05-19 04:35:00,47.6,31.8,29.67,WSW,253,4.0,5.0,54,0.00,,,0.00,LWC V2.11 B50,2013-05-19 10:35:00,
2013-05-19 04:40:00,47.7,32.8,29.67,WSW,254,1.0,5.0,56,0.00,,,0.00,LWC V2.11 B50,2013-05-19 10:40:00,
2013-05-19 04:45:00,48.0,31.7,29.67,West,264,5.0,6.0,53,0.00,,,0.00,LWC V2.11 B50,2013-05-19 10:45:00,
2013-05-19 04:50:00,48.5,31.2,29.67,WSW,244,9.0,11.0,51,0.00,,,0.00,LWC V2.11 B50,2013-05-19 10:50:00,
2013-05-19 04:55:00,48.9,31.6,29.67,West,280,7.0,7.0,51,0.00,,,0.00,LWC V2.11 B50,2013-05-19 10:55:00,
2013-05-19 05:00:00,49.5,29.6,29.67,NW,320,1.0,5.0,46,0.00,,,0.00,LWC V2.11 B50,2013-05-19 11:00:00,
2013-05-19 05:05:00,49.8,30.4,29.67,NW,320,0.0,0.0,47,0.00,,,0.00,LWC V2.11 B50,2013-05-19 11:05:00,
2013-05-19 05:10:00,50.1,30.7,29.67,NW,320,0.0,0.0,47,0.00,,,0.00,LWC V2.11 B50,2013-05-19 11:10:00,
2013-05-19 05:15:00,50.1,31.2,29.68,NW,320,0.0,2.0,48,0.00,,,0.00,LWC V2.11 B50,2013-05-19 11:15:00,
2013-05-19 05:20:00,50.1,32.7,29.68,NW,320,0.0,1.0,51,0.00,,,0.00,LWC V2.11 B50,2013-05-19 11:20:00,
2013-05-19 05:25:00,49.9,32.0,29.68,NW,320,0.0,0.0,50,0.00,,,0.00,LWC V2.11 B50,2013-05-19 11:25:00,
2013-05-19 05:30:00,49.8,34.7,29.67,North,357,0.0,2.0,56,0.00,,,0.00,LWC V2.11 B50,2013-05-19 11:30:00,
2013-05-19 05:35:00,49.4,34.8,29.67,North,356,0.0,1.0,57,0.00,,,0.00,LWC V2.11 B50,2013-05-19 11:35:00,
2013-05-19 05:40:00,48.9,34.8,29.67,North,354,0.0,2.0,58,0.00,,,0.00,LWC V2.11 B50,2013-05-19 11:40:00,
2013-05-19 05:45:00,48.6,35.3,29.67,North,354,0.0,0.0,60,0.00,,,0.00,LWC V2.11 B50,2013-05-19 11:45:00,
2013-05-19 05:50:00,48.5,33.5,29.67,North,353,0.0,3.0,56,0.00,,,0.00,LWC V2.11 B50,2013-05-19 11:50:00,
2013-05-19 05:55:00,48.3,33.8,29.67,North,353,1.0,1.0,57,0.00,,,0.00,LWC V2.11 B50,2013-05-19 11:55:00,
2013-05-19 06:00:00,48.3,35.1,29.69,West,261,2.0,3.0,60,0.00,,,0.00,LWC V2.11 B50,2013-05-19 12:00:00,
2013-05-19 06:05:00,48.2,34.1,29.69,West,260,2.0,2.0,58,0.00,,,0.00,LWC V2.11 B50,2013-05-19 12:05:00,
2013-05-19 06:10:00,48.2,34.1,29.69,West,260,0.0,0.0,58,0.00,,,0.00,LWC V2.11 B50,2013-05-19 12:10:00,
2013-05-19 06:15:00,48.3,33.8,29.71,West,261,0.0,0.0,57,0.00,,,0.00,LWC V2.11 B50,2013-05-19 12:15:00,
2013-05-19 06:20:00,48.5,34.4,29.71,West,261,0.0,0.0,58,0.00,,,0.00,LWC V2.11 B50,2013-05-19 12:20:00,
2013-05-19 06:25:00,48.8,35.1,29.71,West,261,1.0,1.0,59,0.00,,,0.00,LWC V2.11 B50,2013-05-19 12:25:00,
2013-05-19 06:30:00,48.9,36.5,29.71,West,261,0.0,3.0,62,0.00,,,0.00,LWC V2.11 B50,2013-05-19 12:30:00,
2013-05-19 06:35:00,49.1,35.8,29.71,West,261,0.0,2.0,60,0.00,,,0.00,LWC V2.11 B50,2013-05-19 12:35:00,
2013-05-19 06:40:00,49.2,34.6,29.71,West,268,2.0,4.0,57,0.00,,,0.00,LWC V2.11 B50,2013-05-19 12:40:00,
2013-05-19 06:45:00,49.8,32.9,29.70,WNW,296,3.0,3.0,52,0.00,,,0.00,LWC V2.11 B50,2013-05-19 12:45:00,
2013-05-19 06:50:00,50.4,34.8,29.70,WNW,285,6.0,6.0,55,0.00,,,0.00,LWC V2.11 B50,2013-05-19 12:50:00,
2013-05-19 06:55:00,51.1,35.0,29.70,WNW,284,6.0,8.0,54,0.00,,,0.00,LWC V2.11 B50,2013-05-19 12:55:00,
2013-05-19 07:00:00,52.3,32.7,29.69,WSW,258,6.0,9.0,47,0.00,,,0.00,LWC V2.11 B50,2013-05-19 13:00:00,
2013-05-19 07:05:00,53.1,33.4,29.69,West,277,9.0,11.0,47,0.00,,,0.00,LWC V2.11 B50,2013-05-19 13:05:00,
2013-05-19 07:10:00,53.6,33.9,29.69,West,272,2.0,3.0,47,0.00,,,0.00,LWC V2.11 B50,2013-05-19 13:10:00,
2013-05-19 07:15:00,54.2,31.6,29.70,West,263,11.0,11.0,42,0.00,,,0.00,LWC V2.11 B50,2013-05-19 13:15:00,
2013-05-19 07:20:00,55.0,34.6,29.70,SW,227,6.0,8.0,46,0.00,,,0.00,LWC V2.11 B50,2013-05-19 13:20:00,
2013-05-19 07:25:00,55.7,37.3,29.70,WSW,248,8.0,9.0,50,0.00,,,0.00,LWC V2.11 B50,2013-05-19 13:25:00,
2013-05-19 07:30:00,56.3,36.9,29.67,SW,222,10.0,12.0,48,0.00,,,0.00,LWC V2.11 B50,2013-05-19 13:30:00,
2013-05-19 07:35:00,56.9,37.9,29.67,SW,223,6.0,10.0,49,0.00,,,0.00,LWC V2.11 B50,2013-05-19 13:35:00,
2013-05-19 07:40:00,57.3,37.2,29.67,SSW,200,12.0,12.0,47,0.00,,,0.00,LWC V2.11 B50,2013-05-19 13:40:00,
2013-05-19 07:45:00,57.6,37.5,29.66,SW,222,12.0,12.0,47,0.00,,,0.00,LWC V2.11 B50,2013-05-19 13:45:00,
2013-05-19 07:50:00,58.0,38.4,29.66,SW,217,10.0,12.0,48,0.00,,,0.00,LWC V2.11 B50,2013-05-19 13:50:00,
2013-05-19 07:55:00,58.3,35.9,29.66,SW,227,10.0,13.0,43,0.00,,,0.00,LWC V2.11 B50,2013-05-19 13:55:00,
2013-05-19 08:00:00,58.6,35.6,29.65,SW,226,7.0,11.0,42,0.00,,,0.00,LWC V2.11 B50,2013-05-19 14:00:00,
2013-05-19 08:05:00,58.7,36.3,29.65,SW,233,11.0,12.0,43,0.00,,,0.00,LWC V2.11 B50,2013-05-19 14:05:00,
2013-05-19 08:10:00,59.0,35.3,29.65,SW,227,9.0,13.0,41,0.00,,,0.00,LWC V2.11 B50,2013-05-19 14:10:00,
2013-05-19 08:15:00,59.2,33.6,29.66,WSW,239,5.0,6.0,38,0.00,,,0.00,LWC V2.11 B50,2013-05-19 14:15:00,
2013-05-19 08:20:00,59.3,37.4,29.66,SW,224,2.0,3.0,44,0.00,,,0.00,LWC V2.11 B50,2013-05-19 14:20:00,
2013-05-19 08:25:00,59.5,35.8,29.66,SW,219,2.0,3.0,41,0.00,,,0.00,LWC V2.11 B50,2013-05-19 14:25:00,
2013-05-19 08:30:00,59.5,31.1,29.66,West,275,2.0,3.0,34,0.00,,,0.00,LWC V2.11 B50,2013-05-19 14:30:00,
2013-05-19 08:35:00,59.6,28.9,29.66,WNW,289,13.0,13.0,31,0.00,,,0.00,LWC V2.11 B50,2013-05-19 14:35:00,
2013-05-19 08:40:00,59.8,29.1,29.66,WNW,299,11.0,15.0,31,0.00,,,0.00,LWC V2.11 B50,2013-05-19 14:40:00,
2013-05-19 08:45:00,60.1,29.4,29.67,WSW,253,13.0,16.0,31,0.00,,,0.00,LWC V2.11 B50,2013-05-19 14:45:00,
2013-05-19 08:50:00,60.4,28.8,29.67,West,260,12.0,13.0,30,0.00,,,0.00,LWC V2.11 B50,2013-05-19 14:50:00,
2013-05-19 08:55:00,60.9,30.1,29.67,West,277,12.0,14.0,31,0.00,,,0.00,LWC V2.11 B50,2013-05-19 14:55:00,
2013-05-19 09:00:00,61.3,30.4,29.65,WNW,285,6.0,8.0,31,0.00,,,0.00,LWC V2.11 B50,2013-05-19 15:00:00,
2013-05-19 09:05:00,62.1,27.7,29.65,NW,315,11.0,13.0,27,0.00,,,0.00,LWC V2.11 B50,2013-05-19 15:05:00,
2013-05-19 09:10:00,62.6,27.2,29.65,WNW,285,7.0,14.0,26,0.00,,,0.00,LWC V2.11 B50,2013-05-19 15:10:00,
2013-05-19 09:15:00,63.1,28.6,29.65,NW,304,11.0,11.0,27,0.00,,,0.00,LWC V2.11 B50,2013-05-19 15:15:00,
2013-05-19 09:20:00,63.2,28.7,29.65,NW,308,7.0,7.0,27,0.00,,,0.00,LWC V2.11 B50,2013-05-19 15:20:00,
2013-05-19 09:25:00,63.2,29.6,29.65,West,270,11.0,17.0,28,0.00,,,0.00,LWC V2.11 B50,2013-05-19 15:25:00,
2013-05-19 09:30:00,63.2,28.7,29.64,West,264,7.0,7.0,27,0.00,,,0.00,LWC V2.11 B50,2013-05-19 15:30:00,
2013-05-19 09:35:00,63.1,28.6,29.64,NW,325,8.0,11.0,27,0.00,,,0.00,LWC V2.11 B50,2013-05-19 15:35:00,
2013-05-19 09:40:00,62.7,27.3,29.64,NW,308,15.0,19.0,26,0.00,,,0.00,LWC V2.11 B50,2013-05-19 15:40:00,
2013-05-19 09:45:00,62.9,28.4,29.64,WNW,285,16.0,21.0,27,0.00,,,0.00,LWC V2.11 B50,2013-05-19 15:45:00,
2013-05-19 09:50:00,63.4,27.0,29.64,NW,320,19.0,22.0,25,0.00,,,0.00,LWC V2.11 B50,2013-05-19 15:50:00,
2013-05-19 09:55:00,63.9,27.4,29.64,WNW,301,18.0,24.0,25,0.00,,,0.00,LWC V2.11 B50,2013-05-19 15:55:00,
2013-05-19 10:00:00,64.2,26.7,29.62,West,281,13.0,21.0,24,0.00,,,0.00,LWC V2.11 B50,2013-05-19 16:00:00,
2013-05-19 10:05:00,64.5,29.8,29.62,WNW,295,18.0,18.0,27,0.00,,,0.00,LWC V2.11 B50,2013-05-19 16:05:00,
2013-05-19 10:10:00,65.0,27.3,29.62,NNW,337,13.0,17.0,24,0.00,,,0.00,LWC V2.11 B50,2013-05-19 16:10:00,
2013-05-19 10:15:00,65.3,24.4,29.63,NNW,343,17.0,20.0,21,0.00,,,0.00,LWC V2.11 B50,2013-05-19 16:15:00,
2013-05-19 10:20:00,65.3,25.5,29.63,WNW,299,10.0,12.0,22,0.00,,,0.00,LWC V2.11 B50,2013-05-19 16:20:00,
2013-05-19 10:25:00,65.6,25.7,29.63,North,356,9.0,12.0,22,0.00,,,0.00,LWC V2.11 B50,2013-05-19 16:25:00,
2013-05-19 10:30:00,65.3,23.2,29.61,North,349,7.0,14.0,20,0.00,,,0.00,LWC V2.11 B50,2013-05-19 16:30:00,
2013-05-19 10:35:00,64.8,26.1,29.61,NNW,346,5.0,12.0,23,0.17,,,0.03,LWC V2.11 B50,2013-05-19 16:35:00,
2013-05-19 10:40:00,64.2,23.5,29.61,WNW,288,7.0,19.0,21,0.07,,,0.03,LWC V2.11 B50,2013-05-19 16:40:00,
2013-05-19 10:45:00,63.5,24.0,29.63,North,0,14.0,17.0,22,0.04,,,0.03,LWC V2.11 B50,2013-05-19 16:45:00,
2013-05-19 10:50:00,63.7,24.1,29.63,WNW,287,11.0,16.0,22,0.00,,,0.03,LWC V2.11 B50,2013-05-19 16:50:00,
2013-05-19 10:55:00,64.7,25.0,29.63,NNW,343,11.0,14.0,22,0.00,,,0.03,LWC V2.11 B50,2013-05-19 16:55:00,
2013-05-19 11:00:00,65.5,24.5,29.62,NW,322,11.0,12.0,21,0.00,,,0.03,LWC V2.11 B50,2013-05-19 17:00:00,
2013-05-19 11:05:00,65.8,23.6,29.62,NNW,335,2.0,16.0,20,0.00,,,0.03,LWC V2.11 B50,2013-05-19 17:05:00,
2013-05-19 11:10:00,66.1,25.0,29.62,NW,313,2.0,8.0,21,0.00,,,0.03,LWC V2.11 B50,2013-05-19 17:10:00,
2013-05-19 11:15:00,66.4,22.9,29.63,North,354,8.0,11.0,19,0.00,,,0.03,LWC V2.11 B50,2013-05-19 17:15:00,
2013-05-19 11:20:00,66.8,24.4,29.63,WNW,292,6.0,12.0,20,0.00,,,0.03,LWC V2.11 B50,2013-05-19 17:20:00,
2013-05-19 11:25:00,67.1,27.0,29.63,WNW,282,11.0,19.0,22,0.00,,,0.03,LWC V2.11 B50,2013-05-19 17:25:00,
2013-05-19 11:30:00,67.3,27.2,29.62,WNW,301,12.0,14.0,22,0.00,,,0.03,LWC V2.11 B50,2013-05-19 17:30:00,
2013-05-19 11:35:00,67.4,23.7,29.62,NW,326,3.0,17.0,19,0.00,,,0.03,LWC V2.11 B50,2013-05-19 17:35:00,
2013-05-19 11:40:00,67.8,26.4,29.62,West,275,6.0,18.0,21,0.00,,,0.03,LWC V2.11 B50,2013-05-19 17:40:00,
2013-05-19 11:45:00,67.9,24.1,29.61,NNW,344,6.0,13.0,19,0.00,,,0.03,LWC V2.11 B50,2013-05-19 17:45:00,
2013-05-19 11:50:00,67.9,27.7,29.61,NW,313,19.0,19.0,22,0.00,,,0.03,LWC V2.11 B50,2013-05-19 17:50:00,
2013-05-19 11:55:00,68.1,-99.9,29.61,WNW,296,14.0,21.0,-999,0.00,,,0.03,LWC V2.11 B50,2013-05-19 17:55:00,
2013-05-19 12:00:00,68.1,28.9,29.61,NW,320,10.0,20.0,23,0.00,,,0.03,LWC V2.11 B50,2013-05-19 18:00:00,
2013-05-19 12:05:00,68.3,24.5,29.61,NW,325,5.0,12.0,19,0.00,,,0.03,LWC V2.11 B50,2013-05-19 18:05:00,
2013-05-19 12:10:00,68.3,28.0,29.61,SW,236,4.0,7.0,22,0.00,,,0.03,LWC V2.11 B50,2013-05-19 18:10:00,
2013-05-19 12:15:00,68.3,24.5,29.61,North,352,12.0,14.0,19,0.00,,,0.03,LWC V2.11 B50,2013-05-19 18:15:00,
2013-05-19 12:20:00,68.3,23.2,29.61,North,0,7.0,16.0,18,0.00,,,0.03,LWC V2.11 B50,2013-05-19 18:20:00,
2013-05-19 12:25:00,68.4,24.5,29.61,NW,322,9.0,12.0,19,0.00,,,0.03,LWC V2.11 B50,2013-05-19 18:25:00,
2013-05-19 12:30:00,68.8,24.9,29.61,NW,320,2.0,11.0,19,0.00,,,0.03,LWC V2.11 B50,2013-05-19 18:30:00,
2013-05-19 12:35:00,68.8,28.4,29.61,WNW,302,11.0,17.0,22,0.00,,,0.03,LWC V2.11 B50,2013-05-19 18:35:00,
2013-05-19 12:40:00,69.1,26.3,29.61,WSW,257,10.0,18.0,20,0.00,,,0.03,LWC V2.11 B50,2013-05-19 18:40:00,
2013-05-19 12:45:00,69.4,28.9,29.60,NNW,344,6.0,18.0,22,0.00,,,0.03,LWC V2.11 B50,2013-05-19 18:45:00,
2013-05-19 12:50:00,69.4,31.0,29.60,WNW,299,12.0,19.0,24,0.00,,,0.03,LWC V2.11 B50,2013-05-19 18:50:00,
2013-05-19 12:55:00,69.4,27.8,29.60,NNW,330,11.0,19.0,21,0.00,,,0.03,LWC V2.11 B50,2013-05-19 18:55:00,
2013-05-19 13:00:00,69.3,26.5,29.61,NW,309,19.0,27.0,20,0.00,,,0.03,LWC V2.11 B50,2013-05-19 19:00:00,
2013-05-19 13:05:00,69.1,28.7,29.61,WNW,285,11.0,18.0,22,0.00,,,0.03,LWC V2.11 B50,2013-05-19 19:05:00,
2013-05-19 13:10:00,69.1,31.8,29.61,West,268,16.0,18.0,25,0.00,,,0.03,LWC V2.11 B50,2013-05-19 19:10:00,
2013-05-19 13:15:00,69.1,26.3,29.61,North,0,7.0,12.0,20,0.00,,,0.03,LWC V2.11 B50,2013-05-19 19:15:00,
2013-05-19 13:20:00,68.6,28.2,29.61,West,280,12.0,21.0,22,0.00,,,0.03,LWC V2.11 B50,2013-05-19 19:20:00,
2013-05-19 13:25:00,67.9,29.8,29.61,WNW,289,11.0,17.0,24,0.00,,,0.03,LWC V2.11 B50,2013-05-19 19:25:00,
2013-05-19 13:30:00,67.3,29.3,29.62,WNW,291,12.0,12.0,24,0.00,,,0.03,LWC V2.11 B50,2013-05-19 19:30:00,
2013-05-19 13:35:00,66.9,27.9,29.62,West,272,12.0,22.0,23,0.00,,,0.03,LWC V2.11 B50,2013-05-19 19:35:00,
2013-05-19 13:40:00,66.4,27.5,29.62,NW,305,10.0,22.0,23,0.00,,,0.03,LWC V2.11 B50,2013-05-19 19:40:00,
2013-05-19 13:45:00,66.3,29.4,29.62,NW,305,11.0,17.0,25,0.00,,,0.03,LWC V2.11 B50,2013-05-19 19:45:00,
2013-05-19 13:50:00,66.4,28.5,29.62,West,280,8.0,15.0,24,0.00,,,0.03,LWC V2.11 B50,2013-05-19 19:50:00,
2013-05-19 13:55:00,66.6,27.6,29.62,WNW,301,8.0,10.0,23,0.00,,,0.03,LWC V2.11 B50,2013-05-19 19:55:00,
2013-05-19 14:00:00,66.9,26.8,29.62,West,278,12.0,20.0,22,0.00,,,0.03,LWC V2.11 B50,2013-05-19 20:00:00,
2013-05-19 14:05:00,67.3,26.0,29.62,WNW,299,17.0,18.0,21,0.00,,,0.03,LWC V2.11 B50,2013-05-19 20:05:00,
2013-05-19 14:10:00,67.6,29.5,29.62,WNW,289,13.0,22.0,24,0.00,,,0.03,LWC V2.11 B50,2013-05-19 20:10:00,
2013-05-19 14:15:00,68.1,27.8,29.60,NW,323,10.0,17.0,22,0.00,,,0.03,LWC V2.11 B50,2013-05-19 20:15:00,
2013-05-19 14:20:00,68.6,23.4,29.60,WNW,301,8.0,13.0,18,0.00,,,0.03,LWC V2.11 B50,2013-05-19 20:20:00,
2013-05-19 14:25:00,69.3,24.0,29.60,West,260,8.0,18.0,18,0.00,,,0.03,LWC V2.11 B50,2013-05-19 20:25:00,
2013-05-19 14:30:00,69.8,25.7,29.59,NW,312,10.0,12.0,19,0.00,,,0.03,LWC V2.11 B50,2013-05-19 20:30:00,
2013-05-19 14:35:00,70.1,24.6,29.59,West,271,17.0,22.0,18,0.00,,,0.03,LWC V2.11 B50,2013-05-19 20:35:00,
2013-05-19 14:40:00,70.4,28.6,29.59,WNW,296,14.0,18.0,21,0.00,,,0.03,LWC V2.11 B50,2013-05-19 20:40:00,
2013-05-19 14:45:00,70.9,25.3,29.59,WNW,301,12.0,15.0,18,0.00,,,0.03,LWC V2.11 B50,2013-05-19 20:45:00,
2013-05-19 14:50:00,70.9,23.9,29.59,NNW,329,6.0,11.0,17,0.00,,,0.03,LWC V2.11 B50,2013-05-19 20:50:00,
2013-05-19 14:55:00,71.3,25.6,29.59,NNW,344,9.0,16.0,18,0.00,,,0.03,LWC V2.11 B50,2013-05-19 20:55:00,
2013-05-19 15:00:00,71.3,24.2,29.59,NNW,330,7.0,11.0,17,0.00,,,0.03,LWC V2.11 B50,2013-05-19 21:00:00,
2013-05-19 15:05:00,71.5,31.8,29.59,NE,49,8.0,11.0,23,0.00,,,0.03,LWC V2.11 B50,2013-05-19 21:05:00,
2013-05-19 15:10:00,70.9,31.2,29.59,North,7,5.0,10.0,23,0.00,,,0.03,LWC V2.11 B50,2013-05-19 21:10:00,
2013-05-19 15:15:00,70.3,32.8,29.60,North,8,10.0,10.0,25,0.00,,,0.03,LWC V2.11 B50,2013-05-19 21:15:00,
2013-05-19 15:20:00,69.4,32.0,29.60,NE,34,6.0,12.0,25,0.00,,,0.03,LWC V2.11 B50,2013-05-19 21:20:00,
2013-05-19 15:25:00,68.8,32.5,29.60,NE,35,7.0,11.0,26,0.00,,,0.03,LWC V2.11 B50,2013-05-19 21:25:00,
2013-05-19 15:30:00,68.3,31.1,29.63,NNE,16,5.0,8.0,25,0.00,,,0.03,LWC V2.11 B50,2013-05-19 21:30:00,
2013-05-19 15:35:00,67.9,30.8,29.63,NNE,16,8.0,8.0,25,0.00,,,0.03,LWC V2.11 B50,2013-05-19 21:35:00,
2013-05-19 15:40:00,67.3,30.3,29.63,ENE,73,2.0,8.0,25,0.00,,,0.03,LWC V2.11 B50,2013-05-19 21:40:00,
2013-05-19 15:45:00,66.9,30.9,29.63,NE,34,2.0,8.0,26,0.00,,,0.03,LWC V2.11 B50,2013-05-19 21:45:00,
2013-05-19 15:50:00,66.8,30.8,29.63,NNW,337,6.0,10.0,26,0.00,,,0.03,LWC V2.11 B50,2013-05-19 21:50:00,
2013-05-19 15:55:00,66.6,30.6,29.63,NW,318,18.0,24.0,26,0.00,,,0.03,LWC V2.11 B50,2013-05-19 21:55:00,
2013-05-19 16:00:00,66.3,29.4,29.65,NW,306,9.0,22.0,25,0.00,,,0.03,LWC V2.11 B50,2013-05-19 22:00:00,
2013-05-19 16:05:00,66.3,30.4,29.65,WNW,285,19.0,27.0,26,0.00,,,0.03,LWC V2.11 B50,2013-05-19 22:05:00,
2013-05-19 16:10:00,66.4,28.5,29.65,West,275,21.0,27.0,24,0.00,,,0.03,LWC V2.11 B50,2013-05-19 22:10:00,
2013-05-19 16:15:00,67.1,30.1,29.63,WNW,284,18.0,22.0,25,0.00,,,0.03,LWC V2.11 B50,2013-05-19 22:15:00,
2013-05-19 16:20:00,67.1,31.1,29.63,NW,325,12.0,22.0,26,0.00,,,0.03,LWC V2.11 B50,2013-05-19 22:20:00,
2013-05-19 16:25:00,66.8,28.8,29.63,WNW,298,19.0,26.0,24,0.00,,,0.03,LWC V2.11 B50,2013-05-19 22:25:00,
2013-05-19 16:30:00,66.0,27.1,29.65,West,272,21.0,22.0,23,0.00,,,0.03,LWC V2.11 B50,2013-05-19 22:30:00,
2013-05-19 16:35:00,65.6,27.8,29.65,West,275,3.0,14.0,24,0.00,,,0.03,LWC V2.11 B50,2013-05-19 22:35:00,
2013-05-19 16:40:00,65.6,28.8,29.65,WNW,287,8.0,22.0,25,0.00,,,0.03,LWC V2.11 B50,2013-05-19 22:40:00,
2013-05-19 16:45:00,66.0,27.1,29.65,NW,326,13.0,18.0,23,0.00,,,0.03,LWC V2.11 B50,2013-05-19 22:45:00,
2013-05-19 16:50:00,66.1,29.3,29.65,WNW,302,12.0,16.0,25,0.00,,,0.03,LWC V2.11 B50,2013-05-19 22:50:00,
2013-05-19 16:55:00,66.1,29.3,29.65,West,274,6.0,11.0,25,0.00,,,0.03,LWC V2.11 B50,2013-05-19 22:55:00,
2013-05-19 17:00:00,66.1,27.2,29.64,West,274,9.0,13.0,23,0.00,,,0.03,LWC V2.11 B50,2013-05-19 23:00:00,
2013-05-19 17:05:00,66.6,30.6,29.64,WNW,287,6.0,18.0,26,0.00,,,0.03,LWC V2.11 B50,2013-05-19 23:05:00,
2013-05-19 17:10:00,67.4,28.3,29.64,WNW,296,16.0,19.0,23,0.00,,,0.03,LWC V2.11 B50,2013-05-19 23:10:00,
2013-05-19 17:15:00,67.8,30.7,29.64,WNW,285,17.0,17.0,25,0.00,,,0.03,LWC V2.11 B50,2013-05-19 23:15:00,
2013-05-19 17:20:00,68.1,31.9,29.64,WNW,301,10.0,20.0,26,0.00,,,0.03,LWC V2.11 B50,2013-05-19 23:20:00,
2013-05-19 17:25:00,68.8,30.5,29.64,West,275,17.0,22.0,24,0.00,,,0.03,LWC V2.11 B50,2013-05-19 23:25:00,
2013-05-19 17:30:00,69.3,32.9,29.64,WSW,256,10.0,18.0,26,0.00,,,0.03,LWC V2.11 B50,2013-05-19 23:30:00,
2013-05-19 17:35:00,69.9,29.3,29.64,NW,323,14.0,17.0,22,0.00,,,0.03,LWC V2.11 B50,2013-05-19 23:35:00,
2013-05-19 17:40:00,69.9,30.4,29.64,West,267,10.0,18.0,23,0.00,,,0.03,LWC V2.11 B50,2013-05-19 23:40:00,
2013-05-19 17:45:00,69.4,28.9,29.62,WNW,291,13.0,25.0,22,0.00,,,0.03,LWC V2.11 B50,2013-05-19 23:45:00,
2013-05-19 17:50:00,68.8,30.5,29.62,SW,236,6.0,16.0,24,0.00,,,0.03,LWC V2.11 B50,2013-05-19 23:50:00,
2013-05-19 17:55:00,68.3,29.1,29.62,WNW,285,10.0,13.0,23,0.00,,,0.03,LWC V2.11 B50,2013-05-19 23:55:00,
2013-05-19 18:00:00,68.1,28.9,29.63,North,353,16.0,16.0,23,0.00,,,0.03,LWC V2.11 B50,2013-05-20 00:00:00,
2013-05-19 18:05:00,68.3,29.1,29.63,WNW,302,9.0,14.0,23,0.00,,,0.03,LWC V2.11 B50,2013-05-20 00:05:00,
2013-05-19 18:10:00,68.6,31.4,29.63,WNW,284,11.0,16.0,25,0.00,,,0.03,LWC V2.11 B50,2013-05-20 00:10:00,
2013-05-19 18:15:00,68.8,28.4,29.62,West,264,11.0,14.0,22,0.00,,,0.03,LWC V2.11 B50,2013-05-20 00:15:00,
2013-05-19 18:20:00,68.6,29.3,29.62,WNW,301,11.0,24.0,23,0.00,,,0.03,LWC V2.11 B50,2013-05-20 00:20:00,
2013-05-19 18:25:00,68.3,28.0,29.62,WSW,253,7.0,12.0,22,0.00,,,0.03,LWC V2.11 B50,2013-05-20 00:25:00,
2013-05-19 18:30:00,67.6,28.5,29.63,WNW,299,8.0,17.0,23,0.00,,,0.03,LWC V2.11 B50,2013-05-20 00:30:00,
2013-05-19 18:35:00,67.1,29.1,29.63,WNW,285,12.0,18.0,24,0.00,,,0.03,LWC V2.11 B50,2013-05-20 00:35:00,
2013-05-19 18:40:00,66.8,27.8,29.63,West,268,10.0,16.0,23,0.00,,,0.03,LWC V2.11 B50,2013-05-20 00:40:00,
2013-05-19 18:45:00,66.8,28.8,29.64,WNW,287,6.0,11.0,24,0.00,,,0.03,LWC V2.11 B50,2013-05-20 00:45:00,
2013-05-19 18:50:00,66.6,28.7,29.64,West,263,11.0,18.0,24,0.00,,,0.03,LWC V2.11 B50,2013-05-20 00:50:00,
2013-05-19 18:55:00,66.3,29.4,29.64,NNW,346,11.0,17.0,25,0.00,,,0.03,LWC V2.11 B50,2013-05-20 00:55:00,
2013-05-19 19:00:00,65.6,29.8,29.65,WNW,284,7.0,11.0,26,0.00,,,0.03,LWC V2.11 B50,2013-05-20 01:00:00,
2013-05-19 19:05:00,65.0,29.3,29.65,West,274,5.0,8.0,26,0.00,,,0.03,LWC V2.11 B50,2013-05-20 01:05:00,
2013-05-19 19:10:00,64.7,29.0,29.65,WNW,288,10.0,13.0,26,0.00,,,0.03,LWC V2.11 B50,2013-05-20 01:10:00,
2013-05-19 19:15:00,64.2,29.5,29.63,NW,305,11.0,11.0,27,0.00,,,0.03,LWC V2.11 B50,2013-05-20 01:15:00,
2013-05-19 19:20:00,63.7,29.1,29.63,NW,325,6.0,8.0,27,0.00,,,0.03,LWC V2.11 B50,2013-05-20 01:20:00,
2013-05-19 19:25:00,63.4,29.7,29.63,NW,325,8.0,8.0,28,0.00,,,0.03,LWC V2.11 B50,2013-05-20 01:25:00,
2013-05-19 19:30:00,63.1,29.5,29.65,WNW,302,6.0,6.0,28,0.00,,,0.03,LWC V2.11 B50,2013-05-20 01:30:00,
2013-05-19 19:35:00,62.7,28.2,29.65,WNW,298,4.0,6.0,27,0.00,,,0.03,LWC V2.11 B50,2013-05-20 01:35:00,
2013-05-19 19:40:00,62.4,28.9,29.65,North,349,5.0,8.0,28,0.00,,,0.03,LWC V2.11 B50,2013-05-20 01:40:00,
2013-05-19 19:45:00,62.1,28.6,29.65,North,349,4.0,6.0,28,0.00,,,0.03,LWC V2.11 B50,2013-05-20 01:45:00,
2013-05-19 19:50:00,62.0,29.4,29.65,North,353,2.0,3.0,29,0.00,,,0.03,LWC V2.11 B50,2013-05-20 01:50:00,
2013-05-19 19:55:00,61.8,29.2,29.65,North,353,0.0,1.0,29,0.00,,,0.03,LWC V2.11 B50,2013-05-20 01:55:00,
2013-05-19 20:00:00,61.6,29.9,29.66,North,353,2.0,2.0,30,0.00,,,0.03,LWC V2.11 B50,2013-05-20 02:00:00,
2013-05-19 20:05:00,61.5,29.8,29.66,WNW,296,3.0,5.0,30,0.00,,,0.03,LWC V2.11 B50,2013-05-20 02:05:00,
2013-05-19 20:10:00,61.2,29.5,29.66,West,260,0.0,1.0,30,0.00,,,0.03,LWC V2.11 B50,2013-05-20 02:10:00,
2013-05-19 20:15:00,60.9,30.1,29.65,West,260,0.0,0.0,31,0.00,,,0.03,LWC V2.11 B50,2013-05-20 02:15:00,
2013-05-19 20:20:00,60.5,29.7,29.65,North,357,0.0,1.0,31,0.00,,,0.03,LWC V2.11 B50,2013-05-20 02:20:00,
2013-05-19 20:25:00,60.2,29.5,29.65,North,359,3.0,3.0,31,0.00,,,0.03,LWC V2.11 B50,2013-05-20 02:25:00,
2013-05-19 20:30:00,59.9,30.0,29.67,North,3,0.0,0.0,32,0.00,,,0.03,LWC V2.11 B50,2013-05-20 02:30:00,
2013-05-19 20:35:00,59.8,31.4,29.67,NNE,32,0.0,0.0,34,0.00,,,0.03,LWC V2.11 B50,2013-05-20 02:35:00,
2013-05-19 20:40:00,59.5,33.9,29.67,SE,136,3.0,5.0,38,0.00,,,0.03,LWC V2.11 B50,2013-05-20 02:40:00,
2013-05-19 20:45:00,59.0,32.8,29.67,SSE,164,1.0,6.0,37,0.00,,,0.03,LWC V2.11 B50,2013-05-20 02:45:00,
2013-05-19 20:50:00,58.4,30.9,29.67,SSE,164,0.0,0.0,35,0.00,,,0.03,LWC V2.11 B50,2013-05-20 02:50:00,
2013-05-19 20:55:00,58.0,31.9,29.67,SSE,164,0.0,0.0,37,0.00,,,0.03,LWC V2.11 B50,2013-05-20 02:55:00,
2013-05-19 21:00:00,57.8,33.6,29.68,SSE,164,0.0,1.0,40,0.00,,,0.03,LWC V2.11 B50,2013-05-20 03:00:00,
2013-05-19 21:05:00,57.5,34.6,29.68,SSE,164,0.0,1.0,42,0.00,,,0.03,LWC V2.11 B50,2013-05-20 03:05:00,
2013-05-19 21:10:00,57.0,34.7,29.68,SSE,164,0.0,1.0,43,0.00,,,0.03,LWC V2.11 B50,2013-05-20 03:10:00,
2013-05-19 21:15:00,56.5,34.9,29.68,South,188,4.0,5.0,44,0.00,,,0.03,LWC V2.11 B50,2013-05-20 03:15:00,
2013-05-19 21:20:00,55.9,31.9,29.68,NNW,330,2.0,2.0,40,0.00,,,0.03,LWC V2.11 B50,2013-05-20 03:20:00,
2013-05-19 21:25:00,55.7,31.1,29.68,WSW,254,3.0,3.0,39,0.00,,,0.03,LWC V2.11 B50,2013-05-20 03:25:00,
2013-05-19 21:30:00,55.7,33.0,29.69,SSW,210,4.0,5.0,42,0.00,,,0.03,LWC V2.11 B50,2013-05-20 03:30:00,
2013-05-19 21:35:00,55.3,32.6,29.69,SSW,192,1.0,1.0,42,0.00,,,0.03,LWC V2.11 B50,2013-05-20 03:35:00,
2013-05-19 21:40:00,55.1,30.6,29.69,SSE,167,1.0,3.0,39,0.00,,,0.03,LWC V2.11 B50,2013-05-20 03:40:00,
2013-05-19 21:45:00,55.4,30.2,29.71,South,184,2.0,2.0,38,0.00,,,0.03,LWC V2.11 B50,2013-05-20 03:45:00,
2013-05-19 21:50:00,55.7,30.5,29.71,West,261,7.0,8.0,38,0.00,,,0.03,LWC V2.11 B50,2013-05-20 03:50:00,
2013-05-19 21:55:00,56.0,30.1,29.71,WSW,254,3.0,3.0,37,0.00,,,0.03,LWC V2.11 B50,2013-05-20 03:55:00,
2013-05-19 22:00:00,56.0,32.0,29.70,SW,216,3.0,5.0,40,0.00,,,0.03,LWC V2.11 B50,2013-05-20 04:00:00,
2013-05-19 22:05:00,55.9,33.7,29.70,SW,216,3.0,3.0,43,0.00,,,0.03,LWC V2.11 B50,2013-05-20 04:05:00,
2013-05-19 22:10:00,55.6,32.9,29.70,SW,215,2.0,3.0,42,0.00,,,0.03,LWC V2.11 B50,2013-05-20 04:10:00,
2013-05-19 22:15:00,55.3,30.8,29.70,SW,215,2.0,2.0,39,0.00,,,0.03,LWC V2.11 B50,2013-05-20 04:15:00,
2013-05-19 22:20:00,55.1,32.4,29.70,SW,215,2.0,2.0,42,0.00,,,0.03,LWC V2.11 B50,2013-05-20 04:20:00,
2013-05-19 22:25:00,54.8,30.3,29.70,SW,215,0.0,2.0,39,0.00,,,0.03,LWC V2.11 B50,2013-05-20 04:25:00,
2013-05-19 22:30:00,54.7,32.1,29.70,SW,215,0.0,0.0,42,0.00,,,0.03,LWC V2.11 B50,2013-05-20 04:30:00,
2013-05-19 22:35:00,54.4,32.4,29.70,SW,215,0.0,0.0,43,0.00,,,0.03,LWC V2.11 B50,2013-05-20 04:35:00,
2013-05-19 22:40:00,53.9,31.9,29.70,SW,215,0.0,0.0,43,0.00,,,0.03,LWC V2.11 B50,2013-05-20 04:40:00,
2013-05-19 22:45:00,53.6,32.2,29.71,SSW,209,1.0,2.0,44,0.00,,,0.03,LWC V2.11 B50,2013-05-20 04:45:00,
2013-05-19 22:50:00,53.3,32.5,29.71,South,179,1.0,1.0,45,0.00,,,0.03,LWC V2.11 B50,2013-05-20 04:50:00,
2013-05-19 22:55:00,53.2,32.4,29.71,South,179,0.0,0.0,45,0.00,,,0.03,LWC V2.11 B50,2013-05-20 04:55:00,
2013-05-19 23:00:00,52.9,32.7,29.70,South,179,0.0,0.0,46,0.00,,,0.03,LWC V2.11 B50,2013-05-20 05:00:00,
2013-05-19 23:05:00,52.6,34.0,29.70,South,179,0.0,2.0,49,0.00,,,0.03,LWC V2.11 B50,2013-05-20 05:05:00,
2013-05-19 23:10:00,52.2,33.6,29.70,South,179,0.0,0.0,49,0.00,,,0.03,LWC V2.11 B50,2013-05-20 05:10:00,
2013-05-19 23:15:00,51.7,33.7,29.69,South,179,0.0,0.0,50,0.00,,,0.03,LWC V2.11 B50,2013-05-20 05:15:00,
2013-05-19 23:20:00,51.4,33.4,29.69,South,179,1.0,2.0,50,0.00,,,0.03,LWC V2.11 B50,2013-05-20 05:20:00,
2013-05-19 23:25:00,51.1,33.1,29.69,South,179,0.0,1.0,50,0.00,,,0.03,LWC V2.11 B50,2013-05-20 05:25:00,
2013-05-19 23:30:00,50.8,33.3,29.70,South,179,0.0,0.0,51,0.00,,,0.03,LWC V2.11 B50,2013-05-20 05:30:00,
2013-05-19 23:35:00,50.5,33.1,29.70,NNW,335,0.0,3.0,51,0.00,,,0.03,LWC V2.11 B50,2013-05-20 05:35:00,
2013-05-19 23:40:00,50.7,34.7,29.70,NNW,335,0.0,0.0,54,0.00,,,0.03,LWC V2.11 B50,2013-05-20 05:40:00,
2013-05-19 23:45:00,50.5,34.0,29.70,NNW,335,0.0,0.0,53,0.00,,,0.03,LWC V2.11 B50,2013-05-20 05:45:00,
2013-05-19 23:50:00,50.5,34.9,29.70,NNW,335,0.0,0.0,55,0.00,,,0.03,LWC V2.11 B50,2013-05-20 05:50:00,
2013-05-19 23:55:00,50.2,34.7,29.70,SSW,206,5.0,5.0,55,0.00,,,0.03,LWC V2.11 B50,2013-05-20 05:55:00,